sensor_id;sensor_type;location;lat;lon;timestamp;P1;durP1;ratioP1;P2;durP2;ratioP2
55497;SDS011;41357;52.806;18.268;2022-12-29T00:01:17;14.27;;;5.45;;
55497;SDS011;41357;52.806;18.268;2022-12-29T00:03:46;9.88;;;5.18;;
55497;SDS011;41357;52.806;18.268;2022-12-29T00:06:12;9.82;;;5.00;;
55497;SDS011;41357;52.806;18.268;2022-12-29T00:08:39;10.23;;;4.57;;
55497;SDS011;41357;52.806;18.268;2022-12-29T00:11:08;9.77;;;5.28;;
55497;SDS011;41357;52.806;18.268;2022-12-29T00:13:35;12.18;;;4.38;;
55497;SDS011;41357;52.806;18.268;2022-12-29T00:16:20;9.40;;;4.15;;
55497;SDS011;41357;52.806;18.268;2022-12-29T00:18:46;7.80;;;4.10;;
55497;SDS011;41357;52.806;18.268;2022-12-29T00:21:16;8.10;;;4.10;;
55497;SDS011;41357;52.806;18.268;2022-12-29T00:24:02;11.05;;;4.60;;
55497;SDS011;41357;52.806;18.268;2022-12-29T00:26:47;12.25;;;5.20;;
55497;SDS011;41357;52.806;18.268;2022-12-29T00:29:32;10.77;;;4.93;;
55497;SDS011;41357;52.806;18.268;2022-12-29T00:32:17;15.32;;;5.88;;
55497;SDS011;41357;52.806;18.268;2022-12-29T00:35:02;8.38;;;4.30;;
55497;SDS011;41357;52.806;18.268;2022-12-29T00:37:43;10.32;;;4.38;;
55497;SDS011;41357;52.806;18.268;2022-12-29T00:40:30;12.70;;;5.70;;
55497;SDS011;41357;52.806;18.268;2022-12-29T00:43:15;11.27;;;4.47;;
55497;SDS011;41357;52.806;18.268;2022-12-29T00:45:59;7.63;;;4.18;;
55497;SDS011;41357;52.806;18.268;2022-12-29T00:48:25;11.82;;;4.55;;
55497;SDS011;41357;52.806;18.268;2022-12-29T00:51:10;11.13;;;4.18;;
55497;SDS011;41357;52.806;18.268;2022-12-29T00:53:36;6.53;;;3.35;;
55497;SDS011;41357;52.806;18.268;2022-12-29T00:56:02;8.52;;;4.22;;
55497;SDS011;41357;52.806;18.268;2022-12-29T00:58:29;8.40;;;4.00;;
55497;SDS011;41357;52.806;18.268;2022-12-29T01:01:08;9.75;;;4.30;;
55497;SDS011;41357;52.806;18.268;2022-12-29T01:03:34;21.52;;;7.45;;
55497;SDS011;41357;52.806;18.268;2022-12-29T01:06:02;14.93;;;5.47;;
55497;SDS011;41357;52.806;18.268;2022-12-29T01:08:28;11.00;;;4.93;;
55497;SDS011;41357;52.806;18.268;2022-12-29T01:11:01;11.88;;;4.90;;
55497;SDS011;41357;52.806;18.268;2022-12-29T01:13:28;13.10;;;5.45;;
55497;SDS011;41357;52.806;18.268;2022-12-29T01:15:54;11.43;;;4.80;;
55497;SDS011;41357;52.806;18.268;2022-12-29T01:18:21;19.50;;;6.63;;
55497;SDS011;41357;52.806;18.268;2022-12-29T01:20:47;17.65;;;5.82;;
55497;SDS011;41357;52.806;18.268;2022-12-29T01:23:13;13.52;;;5.03;;
55497;SDS011;41357;52.806;18.268;2022-12-29T01:25:39;11.48;;;5.88;;
55497;SDS011;41357;52.806;18.268;2022-12-29T01:28:05;18.85;;;6.07;;
55497;SDS011;41357;52.806;18.268;2022-12-29T01:30:35;12.48;;;5.22;;
55497;SDS011;41357;52.806;18.268;2022-12-29T01:33:02;11.55;;;4.93;;
55497;SDS011;41357;52.806;18.268;2022-12-29T01:35:28;14.82;;;6.28;;
55497;SDS011;41357;52.806;18.268;2022-12-29T01:37:54;17.67;;;5.60;;
55497;SDS011;41357;52.806;18.268;2022-12-29T01:40:20;9.40;;;4.90;;
55497;SDS011;41357;52.806;18.268;2022-12-29T01:42:46;11.23;;;4.57;;
55497;SDS011;41357;52.806;18.268;2022-12-29T01:45:14;12.15;;;5.25;;
55497;SDS011;41357;52.806;18.268;2022-12-29T01:48:01;12.05;;;4.57;;
55497;SDS011;41357;52.806;18.268;2022-12-29T01:50:34;15.80;;;5.57;;
55497;SDS011;41357;52.806;18.268;2022-12-29T01:55:28;12.95;;;5.47;;
55497;SDS011;41357;52.806;18.268;2022-12-29T01:57:55;9.65;;;5.72;;
55497;SDS011;41357;52.806;18.268;2022-12-29T02:00:22;12.48;;;6.45;;
55497;SDS011;41357;52.806;18.268;2022-12-29T02:02:50;19.27;;;8.32;;
55497;SDS011;41357;52.806;18.268;2022-12-29T02:08:02;21.67;;;10.10;;
55497;SDS011;41357;52.806;18.268;2022-12-29T02:10:29;15.70;;;7.57;;
55497;SDS011;41357;52.806;18.268;2022-12-29T02:12:56;21.05;;;7.25;;
55497;SDS011;41357;52.806;18.268;2022-12-29T02:15:25;15.20;;;7.13;;
55497;SDS011;41357;52.806;18.268;2022-12-29T02:18:09;17.17;;;6.25;;
55497;SDS011;41357;52.806;18.268;2022-12-29T02:31:05;9.70;;;6.03;;
55497;SDS011;41357;52.806;18.268;2022-12-29T02:39:02;12.70;;;7.05;;
55497;SDS011;41357;52.806;18.268;2022-12-29T02:49:41;11.02;;;5.97;;
55497;SDS011;41357;52.806;18.268;2022-12-29T02:52:11;11.07;;;5.68;;
55497;SDS011;41357;52.806;18.268;2022-12-29T02:54:40;12.68;;;5.38;;
55497;SDS011;41357;52.806;18.268;2022-12-29T02:59:52;9.48;;;4.40;;
55497;SDS011;41357;52.806;18.268;2022-12-29T03:07:25;14.32;;;5.78;;
55497;SDS011;41357;52.806;18.268;2022-12-29T03:12:29;14.88;;;6.47;;
55497;SDS011;41357;52.806;18.268;2022-12-29T03:15:21;15.13;;;6.40;;
55497;SDS011;41357;52.806;18.268;2022-12-29T03:18:13;12.80;;;5.90;;
55497;SDS011;41357;52.806;18.268;2022-12-29T03:20:53;17.75;;;7.05;;
55497;SDS011;41357;52.806;18.268;2022-12-29T03:23:20;26.20;;;12.65;;
55497;SDS011;41357;52.806;18.268;2022-12-29T03:25:47;26.30;;;12.70;;
55497;SDS011;41357;52.806;18.268;2022-12-29T03:28:18;22.95;;;11.50;;
55497;SDS011;41357;52.806;18.268;2022-12-29T03:30:46;29.08;;;12.07;;
55497;SDS011;41357;52.806;18.268;2022-12-29T03:33:14;21.10;;;11.35;;
55497;SDS011;41357;52.806;18.268;2022-12-29T03:35:41;25.90;;;13.18;;
55497;SDS011;41357;52.806;18.268;2022-12-29T03:40:55;25.73;;;11.77;;
55497;SDS011;41357;52.806;18.268;2022-12-29T03:43:22;19.42;;;7.90;;
55497;SDS011;41357;52.806;18.268;2022-12-29T03:45:48;33.78;;;7.65;;
55497;SDS011;41357;52.806;18.268;2022-12-29T03:48:14;27.73;;;11.98;;
55497;SDS011;41357;52.806;18.268;2022-12-29T03:50:40;23.98;;;10.95;;
55497;SDS011;41357;52.806;18.268;2022-12-29T03:53:07;20.92;;;8.55;;
55497;SDS011;41357;52.806;18.268;2022-12-29T03:55:33;17.50;;;8.50;;
55497;SDS011;41357;52.806;18.268;2022-12-29T03:57:59;22.63;;;8.40;;
55497;SDS011;41357;52.806;18.268;2022-12-29T04:00:25;15.80;;;9.02;;
55497;SDS011;41357;52.806;18.268;2022-12-29T04:02:51;24.08;;;8.98;;
55497;SDS011;41357;52.806;18.268;2022-12-29T04:05:17;17.88;;;8.30;;
55497;SDS011;41357;52.806;18.268;2022-12-29T04:07:44;20.50;;;8.52;;
55497;SDS011;41357;52.806;18.268;2022-12-29T04:10:10;20.63;;;9.80;;
55497;SDS011;41357;52.806;18.268;2022-12-29T04:12:36;32.35;;;12.55;;
55497;SDS011;41357;52.806;18.268;2022-12-29T04:15:02;24.23;;;12.55;;
55497;SDS011;41357;52.806;18.268;2022-12-29T04:17:28;20.75;;;11.50;;
55497;SDS011;41357;52.806;18.268;2022-12-29T04:19:54;23.33;;;12.38;;
55497;SDS011;41357;52.806;18.268;2022-12-29T04:22:40;19.08;;;8.88;;
55497;SDS011;41357;52.806;18.268;2022-12-29T04:25:07;21.70;;;11.50;;
55497;SDS011;41357;52.806;18.268;2022-12-29T04:27:33;29.67;;;15.80;;
55497;SDS011;41357;52.806;18.268;2022-12-29T04:29:59;22.38;;;13.05;;
55497;SDS011;41357;52.806;18.268;2022-12-29T04:32:25;22.83;;;13.40;;
55497;SDS011;41357;52.806;18.268;2022-12-29T04:34:51;23.70;;;13.23;;
55497;SDS011;41357;52.806;18.268;2022-12-29T04:37:17;25.88;;;14.98;;
55497;SDS011;41357;52.806;18.268;2022-12-29T04:39:44;24.33;;;12.25;;
55497;SDS011;41357;52.806;18.268;2022-12-29T04:42:10;24.52;;;13.98;;
55497;SDS011;41357;52.806;18.268;2022-12-29T04:44:36;29.30;;;15.38;;
55497;SDS011;41357;52.806;18.268;2022-12-29T04:47:02;36.38;;;18.48;;
55497;SDS011;41357;52.806;18.268;2022-12-29T04:49:28;33.85;;;15.75;;
55497;SDS011;41357;52.806;18.268;2022-12-29T04:51:54;26.63;;;13.30;;
55497;SDS011;41357;52.806;18.268;2022-12-29T04:54:20;27.27;;;15.00;;
55497;SDS011;41357;52.806;18.268;2022-12-29T04:56:46;33.22;;;16.70;;
55497;SDS011;41357;52.806;18.268;2022-12-29T04:59:12;35.75;;;17.10;;
55497;SDS011;41357;52.806;18.268;2022-12-29T05:01:38;32.58;;;16.67;;
55497;SDS011;41357;52.806;18.268;2022-12-29T05:04:05;30.50;;;16.67;;
55497;SDS011;41357;52.806;18.268;2022-12-29T05:06:31;31.40;;;16.85;;
55497;SDS011;41357;52.806;18.268;2022-12-29T05:08:57;33.60;;;17.90;;
55497;SDS011;41357;52.806;18.268;2022-12-29T05:11:23;28.50;;;14.13;;
55497;SDS011;41357;52.806;18.268;2022-12-29T05:13:49;25.67;;;12.73;;
55497;SDS011;41357;52.806;18.268;2022-12-29T05:16:16;28.80;;;12.68;;
55497;SDS011;41357;52.806;18.268;2022-12-29T05:18:42;25.52;;;13.13;;
55497;SDS011;41357;52.806;18.268;2022-12-29T05:21:08;25.17;;;13.93;;
55497;SDS011;41357;52.806;18.268;2022-12-29T05:23:34;20.00;;;10.65;;
55497;SDS011;41357;52.806;18.268;2022-12-29T05:26:00;28.10;;;12.02;;
55497;SDS011;41357;52.806;18.268;2022-12-29T05:28:26;21.00;;;11.65;;
55497;SDS011;41357;52.806;18.268;2022-12-29T05:30:52;25.77;;;12.65;;
55497;SDS011;41357;52.806;18.268;2022-12-29T05:33:18;30.83;;;16.17;;
55497;SDS011;41357;52.806;18.268;2022-12-29T05:35:45;30.67;;;16.52;;
55497;SDS011;41357;52.806;18.268;2022-12-29T05:38:11;24.77;;;15.60;;
55497;SDS011;41357;52.806;18.268;2022-12-29T05:40:37;32.40;;;16.27;;
55497;SDS011;41357;52.806;18.268;2022-12-29T05:43:03;31.33;;;15.73;;
55497;SDS011;41357;52.806;18.268;2022-12-29T05:45:29;28.70;;;13.20;;
55497;SDS011;41357;52.806;18.268;2022-12-29T05:47:55;24.75;;;13.75;;
55497;SDS011;41357;52.806;18.268;2022-12-29T05:50:21;29.00;;;16.23;;
55497;SDS011;41357;52.806;18.268;2022-12-29T05:52:47;22.60;;;10.98;;
55497;SDS011;41357;52.806;18.268;2022-12-29T05:55:13;14.30;;;8.00;;
55497;SDS011;41357;52.806;18.268;2022-12-29T05:57:39;22.80;;;7.93;;
55497;SDS011;41357;52.806;18.268;2022-12-29T06:00:06;19.88;;;9.20;;
55497;SDS011;41357;52.806;18.268;2022-12-29T06:02:33;18.95;;;7.75;;
55497;SDS011;41357;52.806;18.268;2022-12-29T06:04:59;16.83;;;8.95;;
55497;SDS011;41357;52.806;18.268;2022-12-29T06:07:25;18.42;;;10.10;;
55497;SDS011;41357;52.806;18.268;2022-12-29T06:09:51;28.88;;;12.88;;
55497;SDS011;41357;52.806;18.268;2022-12-29T06:12:17;32.97;;;12.63;;
55497;SDS011;41357;52.806;18.268;2022-12-29T06:14:43;28.80;;;12.65;;
55497;SDS011;41357;52.806;18.268;2022-12-29T06:17:09;30.70;;;16.13;;
55497;SDS011;41357;52.806;18.268;2022-12-29T06:19:35;23.95;;;12.25;;
55497;SDS011;41357;52.806;18.268;2022-12-29T06:22:01;32.05;;;14.32;;
55497;SDS011;41357;52.806;18.268;2022-12-29T06:24:27;19.35;;;9.05;;
55497;SDS011;41357;52.806;18.268;2022-12-29T06:26:54;14.70;;;7.00;;
55497;SDS011;41357;52.806;18.268;2022-12-29T06:29:20;13.20;;;6.35;;
55497;SDS011;41357;52.806;18.268;2022-12-29T06:31:46;14.32;;;5.88;;
55497;SDS011;41357;52.806;18.268;2022-12-29T06:34:13;18.20;;;6.53;;
55497;SDS011;41357;52.806;18.268;2022-12-29T06:36:40;18.67;;;8.52;;
55497;SDS011;41357;52.806;18.268;2022-12-29T06:39:06;21.05;;;12.00;;
55497;SDS011;41357;52.806;18.268;2022-12-29T06:41:32;18.67;;;9.27;;
55497;SDS011;41357;52.806;18.268;2022-12-29T06:43:58;24.80;;;12.85;;
55497;SDS011;41357;52.806;18.268;2022-12-29T06:46:25;28.63;;;17.77;;
55497;SDS011;41357;52.806;18.268;2022-12-29T06:48:51;24.55;;;12.05;;
55497;SDS011;41357;52.806;18.268;2022-12-29T06:51:17;8.15;;;4.20;;
55497;SDS011;41357;52.806;18.268;2022-12-29T06:53:43;10.48;;;4.93;;
55497;SDS011;41357;52.806;18.268;2022-12-29T06:56:09;8.13;;;4.00;;
55497;SDS011;41357;52.806;18.268;2022-12-29T06:58:35;7.88;;;3.95;;
55497;SDS011;41357;52.806;18.268;2022-12-29T07:01:01;5.47;;;3.10;;
55497;SDS011;41357;52.806;18.268;2022-12-29T07:03:27;5.47;;;2.30;;
55497;SDS011;41357;52.806;18.268;2022-12-29T07:05:53;8.68;;;3.78;;
55497;SDS011;41357;52.806;18.268;2022-12-29T07:08:19;10.10;;;3.72;;
55497;SDS011;41357;52.806;18.268;2022-12-29T07:10:46;6.13;;;3.03;;
55497;SDS011;41357;52.806;18.268;2022-12-29T07:13:12;11.10;;;4.25;;
55497;SDS011;41357;52.806;18.268;2022-12-29T07:15:38;8.25;;;3.50;;
55497;SDS011;41357;52.806;18.268;2022-12-29T07:18:04;9.90;;;4.10;;
55497;SDS011;41357;52.806;18.268;2022-12-29T07:20:31;8.13;;;3.08;;
55497;SDS011;41357;52.806;18.268;2022-12-29T07:22:57;6.97;;;3.42;;
55497;SDS011;41357;52.806;18.268;2022-12-29T07:25:23;10.48;;;4.05;;
55497;SDS011;41357;52.806;18.268;2022-12-29T07:27:49;9.30;;;3.95;;
55497;SDS011;41357;52.806;18.268;2022-12-29T07:30:16;13.27;;;4.20;;
55497;SDS011;41357;52.806;18.268;2022-12-29T07:32:42;8.77;;;3.63;;
55497;SDS011;41357;52.806;18.268;2022-12-29T07:35:08;10.30;;;4.03;;
55497;SDS011;41357;52.806;18.268;2022-12-29T07:37:34;7.45;;;3.80;;
55497;SDS011;41357;52.806;18.268;2022-12-29T07:40:01;14.95;;;4.65;;
55497;SDS011;41357;52.806;18.268;2022-12-29T07:42:28;7.40;;;3.15;;
55497;SDS011;41357;52.806;18.268;2022-12-29T07:44:54;10.10;;;4.20;;
55497;SDS011;41357;52.806;18.268;2022-12-29T07:47:20;9.30;;;3.58;;
55497;SDS011;41357;52.806;18.268;2022-12-29T07:49:46;10.45;;;3.42;;
55497;SDS011;41357;52.806;18.268;2022-12-29T07:52:12;9.63;;;3.65;;
55497;SDS011;41357;52.806;18.268;2022-12-29T07:54:39;13.65;;;5.07;;
55497;SDS011;41357;52.806;18.268;2022-12-29T07:57:06;15.23;;;5.07;;
55497;SDS011;41357;52.806;18.268;2022-12-29T07:59:32;11.73;;;4.70;;
55497;SDS011;41357;52.806;18.268;2022-12-29T08:01:58;7.47;;;3.42;;
55497;SDS011;41357;52.806;18.268;2022-12-29T08:04:24;11.45;;;5.63;;
55497;SDS011;41357;52.806;18.268;2022-12-29T08:06:50;15.40;;;6.03;;
55497;SDS011;41357;52.806;18.268;2022-12-29T08:09:17;13.02;;;4.55;;
55497;SDS011;41357;52.806;18.268;2022-12-29T08:11:43;12.48;;;7.25;;
55497;SDS011;41357;52.806;18.268;2022-12-29T08:14:09;17.40;;;8.88;;
55497;SDS011;41357;52.806;18.268;2022-12-29T08:16:35;24.02;;;12.60;;
55497;SDS011;41357;52.806;18.268;2022-12-29T08:19:02;24.33;;;12.55;;
55497;SDS011;41357;52.806;18.268;2022-12-29T08:21:29;23.90;;;12.57;;
55497;SDS011;41357;52.806;18.268;2022-12-29T08:23:56;27.55;;;12.65;;
55497;SDS011;41357;52.806;18.268;2022-12-29T08:26:24;27.08;;;13.23;;
55497;SDS011;41357;52.806;18.268;2022-12-29T08:28:52;29.75;;;13.45;;
55497;SDS011;41357;52.806;18.268;2022-12-29T08:31:18;20.77;;;12.27;;
55497;SDS011;41357;52.806;18.268;2022-12-29T08:33:44;34.15;;;16.17;;
55497;SDS011;41357;52.806;18.268;2022-12-29T08:36:10;31.13;;;16.98;;
55497;SDS011;41357;52.806;18.268;2022-12-29T08:38:36;33.25;;;14.95;;
55497;SDS011;41357;52.806;18.268;2022-12-29T08:41:02;22.73;;;12.88;;
55497;SDS011;41357;52.806;18.268;2022-12-29T08:43:29;29.52;;;12.77;;
55497;SDS011;41357;52.806;18.268;2022-12-29T08:45:56;24.70;;;12.63;;
55497;SDS011;41357;52.806;18.268;2022-12-29T08:48:23;26.15;;;12.63;;
55497;SDS011;41357;52.806;18.268;2022-12-29T08:50:49;21.98;;;9.80;;
55497;SDS011;41357;52.806;18.268;2022-12-29T08:53:16;27.92;;;15.32;;
55497;SDS011;41357;52.806;18.268;2022-12-29T08:55:44;25.90;;;15.95;;
55497;SDS011;41357;52.806;18.268;2022-12-29T08:58:10;32.40;;;14.15;;
55497;SDS011;41357;52.806;18.268;2022-12-29T09:00:40;33.67;;;13.15;;
55497;SDS011;41357;52.806;18.268;2022-12-29T09:03:06;14.23;;;7.82;;
55497;SDS011;41357;52.806;18.268;2022-12-29T09:05:32;15.73;;;8.85;;
55497;SDS011;41357;52.806;18.268;2022-12-29T09:07:58;21.77;;;9.27;;
55497;SDS011;41357;52.806;18.268;2022-12-29T09:10:24;19.02;;;7.57;;
55497;SDS011;41357;52.806;18.268;2022-12-29T09:12:50;15.07;;;6.03;;
55497;SDS011;41357;52.806;18.268;2022-12-29T09:15:16;10.45;;;4.47;;
55497;SDS011;41357;52.806;18.268;2022-12-29T09:17:43;11.20;;;4.43;;
55497;SDS011;41357;52.806;18.268;2022-12-29T09:20:16;11.30;;;5.88;;
55497;SDS011;41357;52.806;18.268;2022-12-29T09:22:43;11.48;;;5.35;;
55497;SDS011;41357;52.806;18.268;2022-12-29T09:25:10;12.07;;;6.07;;
55497;SDS011;41357;52.806;18.268;2022-12-29T09:27:36;13.77;;;8.40;;
55497;SDS011;41357;52.806;18.268;2022-12-29T09:30:03;10.77;;;5.95;;
55497;SDS011;41357;52.806;18.268;2022-12-29T09:32:31;17.42;;;7.53;;
55497;SDS011;41357;52.806;18.268;2022-12-29T09:34:57;13.15;;;5.95;;
55497;SDS011;41357;52.806;18.268;2022-12-29T09:37:24;14.38;;;7.28;;
55497;SDS011;41357;52.806;18.268;2022-12-29T09:39:50;13.05;;;6.07;;
55497;SDS011;41357;52.806;18.268;2022-12-29T09:42:22;12.88;;;5.68;;
55497;SDS011;41357;52.806;18.268;2022-12-29T09:47:21;10.18;;;5.10;;
55497;SDS011;41357;52.806;18.268;2022-12-29T09:49:49;11.07;;;4.90;;
55497;SDS011;41357;52.806;18.268;2022-12-29T09:55:09;8.52;;;3.55;;
55497;SDS011;41357;52.806;18.268;2022-12-29T10:00:22;8.02;;;3.80;;
55497;SDS011;41357;52.806;18.268;2022-12-29T10:02:57;11.45;;;5.18;;
55497;SDS011;41357;52.806;18.268;2022-12-29T10:08:16;9.95;;;5.15;;
55497;SDS011;41357;52.806;18.268;2022-12-29T10:10:41;11.20;;;4.65;;
55497;SDS011;41357;52.806;18.268;2022-12-29T10:16:01;10.88;;;5.97;;
55497;SDS011;41357;52.806;18.268;2022-12-29T10:21:00;19.63;;;7.72;;
55497;SDS011;41357;52.806;18.268;2022-12-29T10:26:14;19.30;;;9.55;;
55497;SDS011;41357;52.806;18.268;2022-12-29T10:29:23;17.25;;;7.97;;
55497;SDS011;41357;52.806;18.268;2022-12-29T10:34:00;27.98;;;12.20;;
55497;SDS011;41357;52.806;18.268;2022-12-29T10:41:25;15.95;;;8.25;;
55497;SDS011;41357;52.806;18.268;2022-12-29T10:43:54;23.67;;;10.27;;
55497;SDS011;41357;52.806;18.268;2022-12-29T10:46:55;11.75;;;5.47;;
55497;SDS011;41357;52.806;18.268;2022-12-29T10:49:16;11.73;;;4.40;;
55497;SDS011;41357;52.806;18.268;2022-12-29T10:51:44;14.17;;;6.73;;
55497;SDS011;41357;52.806;18.268;2022-12-29T10:56:42;9.43;;;4.35;;
55497;SDS011;41357;52.806;18.268;2022-12-29T11:07:17;10.98;;;4.40;;
55497;SDS011;41357;52.806;18.268;2022-12-29T11:09:44;12.18;;;5.68;;
55497;SDS011;41357;52.806;18.268;2022-12-29T11:12:43;10.27;;;4.25;;
55497;SDS011;41357;52.806;18.268;2022-12-29T11:17:48;10.00;;;4.00;;
55497;SDS011;41357;52.806;18.268;2022-12-29T11:22:53;8.98;;;3.83;;
55497;SDS011;41357;52.806;18.268;2022-12-29T11:25:19;7.93;;;3.72;;
55497;SDS011;41357;52.806;18.268;2022-12-29T11:30:41;11.63;;;4.72;;
55497;SDS011;41357;52.806;18.268;2022-12-29T11:33:08;18.33;;;5.50;;
55497;SDS011;41357;52.806;18.268;2022-12-29T11:35:43;8.85;;;4.25;;
55497;SDS011;41357;52.806;18.268;2022-12-29T11:38:20;9.40;;;4.18;;
55497;SDS011;41357;52.806;18.268;2022-12-29T11:40:47;8.02;;;3.58;;
55497;SDS011;41357;52.806;18.268;2022-12-29T11:43:23;6.30;;;3.53;;
55497;SDS011;41357;52.806;18.268;2022-12-29T11:45:49;7.45;;;3.72;;
55497;SDS011;41357;52.806;18.268;2022-12-29T11:48:19;12.05;;;4.15;;
55497;SDS011;41357;52.806;18.268;2022-12-29T11:50:52;6.80;;;3.63;;
55497;SDS011;41357;52.806;18.268;2022-12-29T11:58:17;8.60;;;3.58;;
55497;SDS011;41357;52.806;18.268;2022-12-29T12:00:44;4.82;;;3.00;;
55497;SDS011;41357;52.806;18.268;2022-12-29T12:03:16;11.65;;;3.20;;
55497;SDS011;41357;52.806;18.268;2022-12-29T12:05:44;9.15;;;4.20;;
55497;SDS011;41357;52.806;18.268;2022-12-29T12:08:31;9.32;;;3.72;;
55497;SDS011;41357;52.806;18.268;2022-12-29T12:11:11;11.38;;;4.20;;
55497;SDS011;41357;52.806;18.268;2022-12-29T12:13:53;7.35;;;3.22;;
55497;SDS011;41357;52.806;18.268;2022-12-29T12:16:22;10.32;;;3.42;;
55497;SDS011;41357;52.806;18.268;2022-12-29T12:18:51;9.30;;;3.88;;
55497;SDS011;41357;52.806;18.268;2022-12-29T12:21:23;9.77;;;4.22;;
55497;SDS011;41357;52.806;18.268;2022-12-29T12:23:57;8.70;;;3.25;;
55497;SDS011;41357;52.806;18.268;2022-12-29T12:26:32;7.43;;;3.50;;
55497;SDS011;41357;52.806;18.268;2022-12-29T12:29:04;7.70;;;3.38;;
55497;SDS011;41357;52.806;18.268;2022-12-29T12:34:07;6.88;;;3.22;;
55497;SDS011;41357;52.806;18.268;2022-12-29T12:39:19;6.78;;;3.45;;
55497;SDS011;41357;52.806;18.268;2022-12-29T12:55:05;8.50;;;3.88;;
55497;SDS011;41357;52.806;18.268;2022-12-29T13:00:19;8.50;;;4.53;;
55497;SDS011;41357;52.806;18.268;2022-12-29T13:05:23;8.02;;;4.20;;
55497;SDS011;41357;52.806;18.268;2022-12-29T13:11:11;8.55;;;4.38;;
55497;SDS011;41357;52.806;18.268;2022-12-29T13:13:19;7.32;;;3.78;;
55497;SDS011;41357;52.806;18.268;2022-12-29T13:26:47;10.65;;;4.35;;
55497;SDS011;41357;52.806;18.268;2022-12-29T13:29:21;8.85;;;4.05;;
55497;SDS011;41357;52.806;18.268;2022-12-29T13:31:54;10.70;;;5.22;;
55497;SDS011;41357;52.806;18.268;2022-12-29T13:34:30;8.23;;;4.25;;
55497;SDS011;41357;52.806;18.268;2022-12-29T13:36:59;10.07;;;4.05;;
55497;SDS011;41357;52.806;18.268;2022-12-29T13:41:54;10.80;;;4.78;;
55497;SDS011;41357;52.806;18.268;2022-12-29T13:44:25;8.05;;;3.65;;
55497;SDS011;41357;52.806;18.268;2022-12-29T13:46:52;8.55;;;3.53;;
55497;SDS011;41357;52.806;18.268;2022-12-29T13:49:21;8.00;;;4.07;;
55497;SDS011;41357;52.806;18.268;2022-12-29T13:51:53;7.88;;;3.80;;
55497;SDS011;41357;52.806;18.268;2022-12-29T13:56:50;8.50;;;4.35;;
55497;SDS011;41357;52.806;18.268;2022-12-29T13:59:23;9.93;;;4.40;;
55497;SDS011;41357;52.806;18.268;2022-12-29T14:01:59;14.45;;;4.63;;
55497;SDS011;41357;52.806;18.268;2022-12-29T14:04:28;12.98;;;5.32;;
55497;SDS011;41357;52.806;18.268;2022-12-29T14:07:18;12.90;;;5.30;;
55497;SDS011;41357;52.806;18.268;2022-12-29T14:09:48;11.07;;;4.93;;
55497;SDS011;41357;52.806;18.268;2022-12-29T14:12:19;8.40;;;4.90;;
55497;SDS011;41357;52.806;18.268;2022-12-29T14:14:45;10.20;;;3.87;;
55497;SDS011;41357;52.806;18.268;2022-12-29T14:17:11;15.10;;;5.90;;
55497;SDS011;41357;52.806;18.268;2022-12-29T14:19:39;13.27;;;6.70;;
55497;SDS011;41357;52.806;18.268;2022-12-29T14:22:07;10.68;;;5.53;;
55497;SDS011;41357;52.806;18.268;2022-12-29T14:27:00;15.45;;;6.40;;
55497;SDS011;41357;52.806;18.268;2022-12-29T14:31:53;14.88;;;6.22;;
55497;SDS011;41357;52.806;18.268;2022-12-29T14:36:55;17.25;;;6.60;;
55497;SDS011;41357;52.806;18.268;2022-12-29T14:42:11;20.42;;;7.20;;
55497;SDS011;41357;52.806;18.268;2022-12-29T14:44:51;14.80;;;6.45;;
55497;SDS011;41357;52.806;18.268;2022-12-29T14:49:47;15.77;;;6.95;;
55497;SDS011;41357;52.806;18.268;2022-12-29T14:52:23;20.65;;;6.82;;
55497;SDS011;41357;52.806;18.268;2022-12-29T14:54:53;20.88;;;8.70;;
55497;SDS011;41357;52.806;18.268;2022-12-29T14:57:21;30.70;;;11.18;;
55497;SDS011;41357;52.806;18.268;2022-12-29T14:59:48;28.00;;;11.20;;
55497;SDS011;41357;52.806;18.268;2022-12-29T15:02:20;34.38;;;13.15;;
55497;SDS011;41357;52.806;18.268;2022-12-29T15:04:47;21.65;;;9.07;;
55497;SDS011;41357;52.806;18.268;2022-12-29T15:07:14;18.17;;;7.22;;
55497;SDS011;41357;52.806;18.268;2022-12-29T15:14:53;16.80;;;7.35;;
55497;SDS011;41357;52.806;18.268;2022-12-29T15:17:24;24.52;;;9.15;;
55497;SDS011;41357;52.806;18.268;2022-12-29T15:19:50;34.90;;;11.17;;
55497;SDS011;41357;52.806;18.268;2022-12-29T15:22:16;23.13;;;8.30;;
55497;SDS011;41357;52.806;18.268;2022-12-29T15:24:43;20.10;;;9.32;;
55497;SDS011;41357;52.806;18.268;2022-12-29T15:27:10;23.73;;;12.90;;
55497;SDS011;41357;52.806;18.268;2022-12-29T15:29:40;26.38;;;11.02;;
55497;SDS011;41357;52.806;18.268;2022-12-29T15:32:20;23.88;;;12.25;;
55497;SDS011;41357;52.806;18.268;2022-12-29T15:34:47;31.63;;;13.10;;
55497;SDS011;41357;52.806;18.268;2022-12-29T15:37:18;35.80;;;14.05;;
55497;SDS011;41357;52.806;18.268;2022-12-29T15:39:44;31.90;;;13.57;;
55497;SDS011;41357;52.806;18.268;2022-12-29T15:42:23;30.10;;;12.10;;
55497;SDS011;41357;52.806;18.268;2022-12-29T15:44:52;22.98;;;10.77;;
55497;SDS011;41357;52.806;18.268;2022-12-29T15:47:20;29.30;;;11.13;;
55497;SDS011;41357;52.806;18.268;2022-12-29T15:49:50;32.97;;;11.48;;
55497;SDS011;41357;52.806;18.268;2022-12-29T15:54:44;22.92;;;10.40;;
55497;SDS011;41357;52.806;18.268;2022-12-29T15:57:43;23.85;;;8.80;;
55497;SDS011;41357;52.806;18.268;2022-12-29T16:00:03;40.28;;;13.82;;
55497;SDS011;41357;52.806;18.268;2022-12-29T16:02:29;26.63;;;12.75;;
55497;SDS011;41357;52.806;18.268;2022-12-29T16:04:55;28.67;;;10.85;;
55497;SDS011;41357;52.806;18.268;2022-12-29T16:07:34;30.45;;;12.98;;
55497;SDS011;41357;52.806;18.268;2022-12-29T16:10:01;32.50;;;11.25;;
55497;SDS011;41357;52.806;18.268;2022-12-29T16:12:34;31.67;;;12.57;;
55497;SDS011;41357;52.806;18.268;2022-12-29T16:15:01;24.17;;;12.48;;
55497;SDS011;41357;52.806;18.268;2022-12-29T16:17:29;25.95;;;12.90;;
55497;SDS011;41357;52.806;18.268;2022-12-29T16:19:57;29.52;;;14.55;;
55497;SDS011;41357;52.806;18.268;2022-12-29T16:22:26;23.13;;;9.95;;
55497;SDS011;41357;52.806;18.268;2022-12-29T16:24:55;24.10;;;12.90;;
55497;SDS011;41357;52.806;18.268;2022-12-29T16:27:31;23.08;;;11.55;;
55497;SDS011;41357;52.806;18.268;2022-12-29T16:29:58;24.45;;;13.90;;
55497;SDS011;41357;52.806;18.268;2022-12-29T16:32:29;25.38;;;13.80;;
55497;SDS011;41357;52.806;18.268;2022-12-29T16:37:41;21.40;;;10.43;;
55497;SDS011;41357;52.806;18.268;2022-12-29T16:42:59;25.17;;;14.38;;
55497;SDS011;41357;52.806;18.268;2022-12-29T16:50:37;25.98;;;13.85;;
55497;SDS011;41357;52.806;18.268;2022-12-29T16:53:03;32.92;;;17.00;;
55497;SDS011;41357;52.806;18.268;2022-12-29T16:55:30;30.75;;;15.95;;
55497;SDS011;41357;52.806;18.268;2022-12-29T16:57:56;50.33;;;24.92;;
55497;SDS011;41357;52.806;18.268;2022-12-29T17:00:28;21.83;;;14.05;;
55497;SDS011;41357;52.806;18.268;2022-12-29T17:02:56;41.90;;;17.23;;
55497;SDS011;41357;52.806;18.268;2022-12-29T17:05:23;25.27;;;12.15;;
55497;SDS011;41357;52.806;18.268;2022-12-29T17:07:49;27.58;;;13.65;;
55497;SDS011;41357;52.806;18.268;2022-12-29T17:10:16;18.10;;;8.05;;
55497;SDS011;41357;52.806;18.268;2022-12-29T17:12:43;37.58;;;14.52;;
55497;SDS011;41357;52.806;18.268;2022-12-29T17:22:49;19.27;;;9.30;;